createdAt,value
2022-10-25T00:02:25.974Z,91.02
2022-10-25T00:04:58.576Z,90.61
2022-10-25T00:07:31.266Z,90.85
2022-10-25T00:10:04.131Z,90.96
2022-10-25T00:12:43.410Z,90.75
2022-10-25T00:15:16.763Z,90.50
2022-10-25T00:17:52.577Z,90.46
2022-10-25T00:20:25.028Z,90.19
2022-10-25T00:22:57.798Z,89.91
2022-10-25T00:25:30.293Z,89.61
2022-10-25T00:28:02.845Z,89.43
2022-10-25T00:30:35.358Z,89.23
2022-10-25T00:33:07.992Z,89.05
2022-10-25T00:35:42.721Z,88.98
2022-10-25T00:38:19.835Z,89.11
2022-10-25T00:40:52.360Z,89.09
2022-10-25T00:43:54.192Z,89.06
2022-10-25T00:46:37.427Z,88.93
2022-10-25T00:49:19.262Z,88.61
2022-10-25T00:52:09.981Z,88.44
2022-10-25T00:54:53.678Z,88.17
2022-10-25T00:57:55.450Z,87.81
2022-10-25T01:00:31.067Z,87.69
2022-10-25T01:03:08.668Z,88.07
2022-10-25T01:05:41.983Z,88.32
2022-10-25T01:08:16.627Z,87.98
2022-10-25T01:10:50.262Z,88.37
2022-10-25T01:13:27.323Z,88.34
2022-10-25T01:16:25.839Z,88.23
2022-10-25T01:19:37.353Z,88.68
2022-10-25T01:22:50.407Z,88.69
2022-10-25T01:25:50.881Z,88.32
2022-10-25T01:28:45.514Z,88.25
2022-10-25T01:31:44.127Z,88.22
2022-10-25T01:34:30.242Z,88.33
2022-10-25T01:37:23.848Z,88.09
2022-10-25T01:40:24.048Z,87.99
2022-10-25T01:43:09.428Z,88.02
2022-10-25T01:45:55.534Z,87.74
2022-10-25T01:48:39.456Z,87.66
2022-10-25T01:51:16.486Z,87.94
2022-10-25T01:53:51.945Z,87.79
2022-10-25T01:56:53.078Z,87.87
2022-10-25T01:59:53.042Z,87.91
2022-10-25T02:02:47.637Z,88.09
2022-10-25T02:06:05.474Z,87.96
2022-10-25T02:08:57.194Z,88.32
2022-10-25T02:11:33.196Z,88.27
2022-10-25T02:14:37.497Z,88.86
2022-10-25T02:17:21.128Z,88.62
2022-10-25T02:20:01.086Z,88.44
2022-10-25T02:22:35.219Z,89.00
2022-10-25T02:25:09.961Z,88.67
2022-10-25T02:27:45.398Z,88.24
2022-10-25T02:30:19.082Z,88.41
2022-10-25T02:32:51.899Z,88.77
2022-10-25T02:35:24.381Z,89.05
2022-10-25T02:37:56.968Z,88.85
2022-10-25T02:40:30.063Z,88.98
2022-10-25T02:43:02.782Z,89.06
2022-10-25T02:45:35.229Z,89.40
2022-10-25T02:48:07.768Z,89.10
2022-10-25T02:50:40.233Z,89.65
2022-10-25T02:53:12.761Z,89.49
2022-10-25T02:55:45.367Z,89.20
2022-10-25T02:58:17.990Z,89.52
2022-10-25T03:00:50.595Z,89.33
2022-10-25T03:03:23.197Z,89.90
2022-10-25T03:05:57.061Z,89.54
2022-10-25T03:08:30.067Z,89.74
2022-10-25T03:11:02.659Z,89.59
2022-10-25T03:13:35.882Z,89.38
2022-10-25T03:16:09.342Z,89.60
2022-10-25T03:18:41.915Z,89.40
2022-10-25T03:21:14.515Z,89.92
2022-10-25T03:23:47.012Z,89.91
2022-10-25T03:26:19.539Z,90.02
2022-10-25T03:28:52.105Z,89.79
2022-10-25T03:31:25.210Z,89.40
2022-10-25T03:33:57.703Z,90.32
2022-10-25T03:36:30.257Z,89.68
2022-10-25T03:39:02.764Z,90.27
2022-10-25T03:41:35.233Z,89.95
2022-10-25T03:44:07.727Z,89.97
2022-10-25T03:46:40.501Z,90.09
2022-10-25T03:49:13.263Z,90.30
2022-10-25T03:51:45.740Z,90.25
2022-10-25T03:54:18.214Z,90.31
2022-10-25T03:56:53.387Z,90.87
2022-10-25T03:59:29.381Z,90.31
2022-10-25T04:02:02.189Z,90.48
2022-10-25T04:04:34.913Z,90.28
2022-10-25T04:07:10.790Z,90.76
2022-10-25T04:09:51.923Z,90.60
2022-10-25T04:12:26.833Z,90.50
2022-10-25T04:14:59.435Z,89.98
2022-10-25T04:17:36.712Z,89.91
2022-10-25T04:20:17.387Z,89.81
2022-10-25T04:22:57.015Z,89.83
2022-10-25T04:25:29.679Z,90.06
2022-10-25T04:28:02.209Z,90.27
2022-10-25T04:30:37.920Z,90.36
2022-10-25T04:33:11.397Z,90.51
2022-10-25T04:35:43.906Z,91.09
2022-10-25T04:38:16.361Z,90.82
2022-10-25T04:40:58.041Z,90.92
2022-10-25T04:43:30.586Z,90.92
2022-10-25T04:46:03.870Z,91.14
2022-10-25T04:48:38.755Z,91.05
2022-10-25T04:51:13.258Z,91.03
2022-10-25T04:53:45.888Z,90.96
2022-10-25T04:56:18.421Z,91.30
2022-10-25T04:58:55.024Z,91.22
2022-10-25T05:01:27.631Z,91.17
2022-10-25T05:04:00.521Z,91.35
2022-10-25T05:06:33.191Z,91.40
2022-10-25T05:09:05.829Z,91.34
2022-10-25T05:11:38.332Z,91.40
2022-10-25T05:14:10.872Z,91.82
2022-10-25T05:16:43.499Z,91.61
2022-10-25T05:19:16.344Z,91.94
2022-10-25T05:21:48.879Z,91.29
2022-10-25T05:24:21.780Z,91.38
2022-10-25T05:26:54.313Z,91.28
2022-10-25T05:29:26.983Z,91.32
2022-10-25T05:31:59.917Z,91.78
2022-10-25T05:34:32.808Z,91.52
2022-10-25T05:37:05.302Z,91.63
2022-10-25T05:39:37.841Z,91.63
2022-10-25T05:42:10.439Z,91.72
2022-10-25T05:44:42.942Z,91.84
2022-10-25T05:47:15.567Z,91.59
2022-10-25T05:49:48.216Z,91.94
2022-10-25T05:52:20.765Z,91.46
2022-10-25T05:54:53.307Z,91.75
2022-10-25T05:57:25.903Z,91.88
2022-10-25T05:59:58.362Z,91.64
2022-10-25T06:02:31.217Z,92.09
2022-10-25T06:05:04.112Z,91.91
2022-10-25T06:07:36.684Z,91.77
2022-10-25T06:10:10.741Z,91.55
2022-10-25T06:12:43.471Z,91.62
2022-10-25T06:15:15.940Z,91.50
2022-10-25T06:17:48.412Z,91.37
2022-10-25T06:20:21.004Z,90.78
2022-10-25T06:22:53.471Z,90.71
2022-10-25T06:25:26.226Z,90.64
2022-10-25T06:27:58.766Z,90.58
2022-10-25T06:30:32.926Z,90.42
2022-10-25T06:33:05.445Z,90.35
2022-10-25T06:35:37.895Z,90.15
2022-10-25T06:38:10.391Z,90.43
2022-10-25T06:40:42.827Z,90.09
2022-10-25T06:43:15.279Z,89.64
2022-10-25T06:45:47.773Z,90.23
2022-10-25T06:48:20.958Z,89.99
2022-10-25T06:51:11.574Z,90.06
2022-10-25T06:53:44.580Z,90.00
2022-10-25T06:56:17.057Z,90.03
2022-10-25T06:58:49.882Z,89.76
2022-10-25T07:01:25.010Z,90.14
2022-10-25T07:03:58.263Z,89.68
2022-10-25T07:06:37.717Z,89.88
2022-10-25T07:09:12.307Z,89.33
2022-10-25T07:11:45.746Z,89.11
2022-10-25T07:14:18.228Z,89.07
2022-10-25T07:16:50.796Z,88.96
2022-10-25T07:19:26.454Z,88.61
2022-10-25T07:21:59.103Z,88.29
2022-10-25T07:24:31.847Z,88.44
2022-10-25T07:27:06.973Z,88.37
2022-10-25T07:29:42.193Z,88.14
2022-10-25T07:32:21.332Z,87.58
2022-10-25T07:34:55.027Z,87.19
2022-10-25T07:37:37.592Z,87.13
2022-10-25T07:40:13.964Z,86.80
2022-10-25T07:42:49.822Z,87.01
2022-10-25T07:45:25.332Z,86.20
2022-10-25T07:47:58.976Z,85.74
2022-10-25T07:50:31.507Z,86.25
2022-10-25T07:53:04.038Z,85.78
2022-10-25T07:55:36.612Z,85.38
2022-10-25T07:58:11.966Z,85.18
2022-10-25T08:00:44.453Z,84.64
2022-10-25T08:03:18.456Z,84.57
2022-10-25T08:05:51.279Z,83.98
2022-10-25T08:08:24.414Z,83.84
2022-10-25T08:10:57.799Z,84.52
2022-10-25T08:13:30.888Z,84.72
2022-10-25T08:16:05.075Z,84.13
2022-10-25T08:18:37.552Z,83.86
2022-10-25T08:21:10.051Z,83.62
2022-10-25T08:23:42.855Z,83.71
2022-10-25T08:26:16.274Z,83.29
2022-10-25T08:28:48.863Z,83.35
2022-10-25T08:31:21.923Z,83.62
2022-10-25T08:33:55.042Z,82.71
2022-10-25T08:36:28.103Z,82.64
2022-10-25T08:39:00.667Z,82.38
2022-10-25T08:42:00.850Z,82.12
2022-10-25T08:45:10.082Z,82.32
2022-10-25T08:47:50.418Z,82.02
2022-10-25T08:50:34.895Z,82.25
2022-10-25T08:53:18.781Z,81.75
2022-10-25T08:56:15.112Z,81.69
2022-10-25T08:58:58.113Z,81.10
2022-10-25T09:01:44.898Z,81.65
2022-10-25T09:04:17.699Z,81.38
2022-10-25T09:07:23.188Z,81.30
2022-10-25T09:10:18.945Z,80.95
2022-10-25T09:13:21.175Z,80.84
2022-10-25T09:16:21.850Z,80.35
2022-10-25T09:18:57.433Z,80.32
2022-10-25T09:21:36.006Z,80.26
2022-10-25T09:24:28.981Z,80.01
2022-10-25T09:27:19.653Z,79.94
2022-10-25T09:30:12.828Z,79.59
2022-10-25T09:32:52.131Z,78.89
2022-10-25T09:35:33.039Z,79.16
2022-10-25T09:38:25.167Z,79.67
2022-10-25T09:41:03.151Z,79.40
2022-10-25T09:43:43.914Z,79.65
2022-10-25T09:46:27.673Z,79.64
2022-10-25T09:49:19.405Z,78.62
2022-10-25T09:52:05.110Z,77.74
2022-10-25T09:54:47.087Z,78.58
2022-10-25T09:57:19.812Z,78.12
2022-10-25T09:59:52.445Z,77.88
2022-10-25T10:02:27.259Z,78.18
2022-10-25T10:05:00.290Z,78.38
2022-10-25T10:07:37.325Z,77.42
2022-10-25T10:10:16.358Z,77.64
2022-10-25T10:13:03.905Z,77.77
2022-10-25T10:15:59.564Z,77.09
2022-10-25T10:18:34.833Z,77.08
2022-10-25T10:21:10.300Z,77.18
2022-10-25T10:23:53.395Z,76.41
2022-10-25T10:26:43.330Z,76.96
2022-10-25T10:30:05.835Z,76.66
2022-10-25T10:35:40.258Z,76.71
2022-10-25T10:38:28.622Z,77.19
2022-10-25T10:41:28.869Z,76.99
2022-10-25T10:44:13.645Z,76.98
2022-10-25T10:46:47.699Z,76.44
2022-10-25T10:49:30.056Z,75.55
2022-10-25T10:52:06.842Z,75.42
2022-10-25T10:54:50.766Z,75.48
2022-10-25T10:57:39.738Z,74.84
2022-10-25T11:00:33.647Z,74.77
2022-10-25T11:03:06.294Z,74.46
2022-10-25T11:05:39.442Z,74.11
2022-10-25T11:08:19.741Z,74.34
2022-10-25T11:10:52.661Z,73.72
2022-10-25T11:13:28.242Z,74.03
2022-10-25T11:16:39.095Z,74.08
2022-10-25T11:19:33.920Z,73.54
2022-10-25T11:22:33.995Z,72.84
2022-10-25T11:25:23.733Z,72.19
2022-10-25T11:27:56.137Z,72.05
2022-10-25T11:30:47.655Z,71.44
2022-10-25T11:33:57.344Z,70.50
2022-10-25T11:37:04.964Z,70.91
2022-10-25T11:40:15.394Z,70.47
2022-10-25T11:43:16.161Z,70.03
2022-10-25T11:46:07.553Z,70.40
2022-10-25T11:49:21.292Z,70.47
2022-10-25T11:52:34.587Z,70.49
2022-10-25T11:55:23.093Z,69.79
2022-10-25T11:58:07.954Z,69.43
2022-10-25T12:00:54.914Z,70.79
2022-10-25T12:04:13.847Z,69.39
2022-10-25T12:07:30.053Z,70.11
2022-10-25T12:10:35.714Z,68.67
2022-10-25T12:13:28.785Z,67.57
2022-10-25T12:16:09.388Z,67.92
2022-10-25T12:19:06.326Z,67.74
2022-10-25T12:21:49.364Z,68.42
2022-10-25T12:24:30.941Z,67.50
2022-10-25T12:27:05.316Z,67.94
2022-10-25T12:29:47.901Z,67.66
2022-10-25T12:32:31.537Z,67.99
2022-10-25T12:35:20.456Z,66.87
2022-10-25T12:38:24.233Z,65.92
2022-10-25T12:41:07.188Z,66.65
2022-10-25T12:44:30.428Z,66.19
2022-10-25T12:47:23.629Z,66.90
2022-10-25T12:50:08.164Z,66.52
2022-10-25T12:53:01.896Z,66.00
2022-10-25T12:56:46.712Z,66.87
2022-10-25T12:59:31.300Z,65.95
2022-10-25T13:02:44.550Z,66.25
2022-10-25T13:05:57.753Z,65.63
2022-10-25T13:08:32.902Z,66.19
2022-10-25T13:11:09.334Z,66.59
2022-10-25T13:13:51.715Z,66.59
2022-10-25T13:16:35.099Z,65.42
2022-10-25T13:19:53.714Z,65.85
2022-10-25T13:22:40.950Z,65.42
2022-10-25T13:25:13.474Z,65.27
2022-10-25T13:28:14.044Z,64.98
2022-10-25T13:30:46.582Z,65.64
2022-10-25T13:33:19.229Z,65.14
2022-10-25T13:35:51.645Z,64.75
2022-10-25T13:38:34.222Z,65.10
2022-10-25T13:41:19.382Z,65.17
2022-10-25T13:44:02.338Z,64.57
2022-10-25T13:46:41.334Z,65.09
2022-10-25T13:49:40.209Z,65.52
2022-10-25T13:52:33.392Z,64.97
2022-10-25T13:55:09.290Z,64.72
2022-10-25T13:57:58.348Z,63.64
2022-10-25T14:00:36.316Z,62.74
2022-10-25T14:03:08.699Z,62.86
2022-10-25T14:05:53.370Z,62.72
2022-10-25T14:08:38.200Z,63.46
2022-10-25T14:11:35.284Z,62.40
2022-10-25T14:14:10.801Z,62.98
2022-10-25T14:16:52.513Z,63.66
2022-10-25T14:19:40.900Z,64.06
2022-10-25T14:22:41.477Z,65.46
2022-10-25T14:25:23.624Z,65.68
2022-10-25T14:28:26.246Z,65.32
2022-10-25T14:31:02.320Z,66.19
2022-10-25T14:33:48.683Z,65.69
2022-10-25T14:36:37.972Z,64.44
2022-10-25T14:39:28.061Z,64.08
2022-10-25T14:42:02.983Z,63.66
2022-10-25T14:44:48.603Z,62.38
2022-10-25T14:47:31.717Z,62.25
2022-10-25T14:50:04.487Z,61.98
2022-10-25T14:52:37.169Z,62.38
2022-10-25T14:55:32.230Z,62.81
2022-10-25T14:58:04.763Z,63.61
2022-10-25T15:00:37.361Z,65.22
2022-10-25T15:03:13.280Z,64.76
2022-10-25T15:05:48.624Z,65.46
2022-10-25T15:08:25.087Z,66.06
2022-10-25T15:11:05.371Z,66.30
2022-10-25T15:13:44.722Z,67.00
2022-10-25T15:16:34.838Z,67.05
2022-10-25T15:19:18.347Z,67.75
2022-10-25T15:21:53.242Z,67.00
2022-10-25T15:24:27.497Z,67.04
2022-10-25T15:27:07.630Z,67.45
2022-10-25T15:29:43.430Z,67.19
2022-10-25T15:32:27.734Z,67.40
2022-10-25T15:35:02.328Z,66.95
2022-10-25T15:37:34.833Z,68.05
2022-10-25T15:40:15.863Z,67.44
2022-10-25T15:42:48.858Z,68.90
2022-10-25T15:45:21.435Z,68.82
2022-10-25T15:47:55.105Z,69.15
2022-10-25T15:50:27.797Z,69.75
2022-10-25T15:53:01.069Z,70.31
2022-10-25T15:55:33.510Z,70.52
2022-10-25T15:58:09.732Z,71.15
2022-10-25T16:00:45.072Z,71.01
2022-10-25T16:03:25.069Z,71.50
2022-10-25T16:05:57.632Z,72.35
2022-10-25T16:08:30.326Z,72.87
2022-10-25T16:11:03.027Z,72.85
2022-10-25T16:13:38.738Z,73.73
2022-10-25T16:16:39.364Z,73.95
2022-10-25T16:19:18.409Z,74.23
2022-10-25T16:21:50.937Z,74.31
2022-10-25T16:24:23.445Z,75.05
2022-10-25T16:26:55.954Z,75.23
2022-10-25T16:29:29.511Z,75.45
2022-10-25T16:32:03.908Z,75.55
2022-10-25T16:34:37.553Z,75.62
2022-10-25T16:37:11.927Z,75.74
2022-10-25T16:39:44.655Z,76.33
2022-10-25T16:42:33.635Z,76.62
2022-10-25T16:45:29.431Z,77.06
2022-10-25T16:50:39.364Z,77.78
2022-10-25T16:53:13.151Z,77.88
2022-10-25T16:55:45.659Z,78.13
2022-10-25T16:58:18.148Z,78.91
2022-10-25T17:00:50.668Z,78.86
2022-10-25T17:03:23.167Z,79.38
2022-10-25T17:05:55.853Z,79.43
2022-10-25T17:08:28.369Z,79.79
2022-10-25T17:11:00.915Z,80.03
2022-10-25T17:13:33.437Z,80.58
2022-10-25T17:16:09.046Z,80.78
2022-10-25T17:18:42.434Z,80.68
2022-10-25T17:21:17.014Z,81.31
2022-10-25T17:23:49.449Z,81.64
2022-10-25T17:26:22.304Z,81.99
2022-10-25T17:28:54.823Z,82.39
2022-10-25T17:31:32.476Z,82.46
2022-10-25T17:34:05.003Z,83.38
2022-10-25T17:36:38.126Z,84.05
2022-10-25T17:39:11.902Z,84.83
2022-10-25T17:41:44.374Z,84.96
2022-10-25T17:44:16.910Z,85.13
2022-10-25T17:46:49.402Z,84.88
2022-10-25T17:49:22.045Z,84.93
2022-10-25T17:51:54.522Z,85.20
2022-10-25T17:54:27.036Z,84.80
2022-10-25T17:57:01.123Z,84.83
2022-10-25T17:59:35.557Z,84.53
2022-10-25T18:02:11.605Z,84.35
2022-10-25T18:05:02.124Z,84.30
2022-10-25T18:07:39.630Z,84.14
2022-10-25T18:10:12.404Z,83.10
2022-10-25T18:12:45.082Z,82.72
2022-10-25T18:15:18.056Z,83.06
2022-10-25T18:17:50.798Z,83.04
2022-10-25T18:20:25.194Z,83.73
2022-10-25T18:22:57.805Z,83.80
2022-10-25T18:25:30.325Z,83.64
2022-10-25T18:28:02.854Z,83.57
2022-10-25T18:30:35.413Z,83.81
2022-10-25T18:33:13.634Z,83.44
2022-10-25T18:35:46.227Z,83.50
2022-10-25T18:38:18.813Z,83.68
2022-10-25T18:40:51.403Z,83.76
2022-10-25T18:43:25.275Z,83.78
2022-10-25T18:45:59.566Z,83.64
2022-10-25T18:48:32.064Z,84.32
2022-10-25T18:51:08.982Z,84.50
2022-10-25T18:53:42.446Z,84.57
2022-10-25T18:56:19.536Z,84.57
2022-10-25T18:58:56.903Z,84.55
2022-10-25T19:01:32.818Z,84.87
2022-10-25T19:04:06.370Z,84.69
2022-10-25T19:06:39.005Z,85.63
2022-10-25T19:09:11.679Z,86.02
2022-10-25T19:11:44.318Z,86.28
2022-10-25T19:14:16.837Z,86.17
2022-10-25T19:16:49.354Z,85.87
2022-10-25T19:19:21.906Z,85.81
2022-10-25T19:21:54.562Z,85.98
2022-10-25T19:24:27.067Z,85.87
2022-10-25T19:26:59.812Z,86.13
2022-10-25T19:29:33.115Z,86.43
2022-10-25T19:32:06.221Z,86.54
2022-10-25T19:34:38.732Z,86.64
2022-10-25T19:37:11.319Z,86.97
2022-10-25T19:39:44.796Z,86.91
2022-10-25T19:42:17.388Z,87.38
2022-10-25T19:44:51.745Z,87.29
2022-10-25T19:47:24.642Z,86.99
2022-10-25T19:49:57.110Z,86.70
2022-10-25T19:52:29.638Z,86.71
2022-10-25T19:57:40.056Z,87.03
2022-10-25T20:00:13.716Z,87.46
2022-10-25T20:02:46.310Z,87.47
2022-10-25T20:05:18.929Z,87.39
2022-10-25T20:07:51.995Z,87.32
2022-10-25T20:10:24.569Z,87.26
2022-10-25T20:12:57.072Z,87.34
2022-10-25T20:15:29.591Z,87.41
2022-10-25T20:18:02.260Z,87.66
2022-10-25T20:20:36.175Z,87.52
2022-10-25T20:23:08.745Z,87.46
2022-10-25T20:25:41.825Z,87.83
2022-10-25T20:28:14.339Z,88.08
2022-10-25T20:30:46.909Z,88.18
2022-10-25T20:33:22.398Z,88.08
2022-10-25T20:35:54.854Z,87.73
2022-10-25T20:38:27.420Z,88.05
2022-10-25T20:41:27.663Z,87.77
2022-10-25T20:44:05.770Z,87.53
2022-10-25T20:46:38.293Z,87.79
2022-10-25T20:49:10.976Z,87.85
2022-10-25T20:51:43.496Z,88.22
2022-10-25T20:54:16.044Z,88.18
2022-10-25T20:56:48.534Z,88.46
2022-10-25T20:59:21.070Z,88.38
2022-10-25T21:01:53.706Z,88.55
2022-10-25T21:04:42.343Z,88.52
2022-10-25T21:07:18.733Z,88.16
2022-10-25T21:09:51.223Z,88.31
2022-10-25T21:12:24.187Z,87.92
2022-10-25T21:14:56.723Z,87.88
2022-10-25T21:17:29.270Z,87.49
2022-10-25T21:20:01.985Z,87.59
2022-10-25T21:22:34.570Z,87.74
2022-10-25T21:25:07.952Z,87.82
2022-10-25T21:27:40.854Z,87.80
2022-10-25T21:30:13.602Z,88.06
2022-10-25T21:32:46.065Z,88.04
2022-10-25T21:35:20.641Z,88.15
2022-10-25T21:37:53.429Z,88.07
2022-10-25T21:40:26.262Z,88.29
2022-10-25T21:42:58.789Z,88.08
2022-10-25T21:45:31.283Z,88.17
2022-10-25T21:48:04.149Z,88.37
2022-10-25T21:50:36.658Z,88.54
2022-10-25T21:53:09.185Z,88.87
2022-10-25T21:55:41.726Z,89.12
2022-10-25T21:58:14.216Z,88.92
2022-10-25T22:00:46.739Z,89.04
2022-10-25T22:03:20.502Z,89.06
2022-10-25T22:05:54.560Z,89.10
2022-10-25T22:08:27.116Z,88.77
2022-10-25T22:11:18.254Z,88.77
2022-10-25T22:14:01.079Z,89.15
2022-10-25T22:16:34.869Z,89.76
2022-10-25T22:19:21.354Z,89.95
2022-10-25T22:21:53.836Z,89.90
2022-10-25T22:24:26.289Z,89.91
2022-10-25T22:26:58.813Z,90.21
2022-10-25T22:29:31.286Z,90.36
2022-10-25T22:32:03.909Z,90.30
2022-10-25T22:34:36.445Z,90.37
2022-10-25T22:37:08.984Z,90.43
2022-10-25T22:39:41.443Z,90.30
2022-10-25T22:42:13.961Z,90.40
2022-10-25T22:44:46.425Z,90.38
2022-10-25T22:47:18.928Z,90.36
2022-10-25T22:49:51.375Z,90.60
2022-10-25T22:52:23.902Z,90.44
2022-10-25T22:54:56.450Z,90.60
2022-10-25T22:57:32.138Z,90.56
2022-10-25T23:00:05.585Z,90.31
2022-10-25T23:02:38.104Z,90.53
2022-10-25T23:05:10.625Z,90.27
2022-10-25T23:07:43.097Z,90.26
2022-10-25T23:10:15.645Z,90.06
2022-10-25T23:12:48.638Z,90.14
2022-10-25T23:15:21.330Z,89.98
2022-10-25T23:17:53.946Z,89.77
2022-10-25T23:20:26.389Z,89.64
2022-10-25T23:22:58.882Z,89.46
2022-10-25T23:25:33.146Z,89.58
2022-10-25T23:28:05.679Z,89.34
2022-10-25T23:30:39.461Z,89.26
2022-10-25T23:33:13.710Z,89.51
2022-10-25T23:35:46.154Z,89.40
2022-10-25T23:38:18.604Z,89.48
2022-10-25T23:40:51.126Z,89.10
2022-10-25T23:43:23.842Z,88.89
2022-10-25T23:45:56.377Z,88.56
2022-10-25T23:48:29.095Z,88.79
2022-10-25T23:51:05.560Z,88.55
2022-10-25T23:53:38.569Z,88.61
2022-10-25T23:56:13.373Z,88.30
2022-10-25T23:58:50.275Z,88.13
